Terminal Aerodrome Forecast
Issued by NWS Wichita, KS

Home | Current Version | Previous Version | Text Only | Print | Product List | Glossary On
Versions: 1 2 3 4 5 6 7 8 9 10 11 12 13
153
FTUS43 KICT 071732
TAFICT
TAF
KICT 071732Z 0718/0818 33018G26KT P6SM SCT200
     FM072000 33024G35KT P6SM SCT080 BKN120
     FM080100 32017G23KT P6SM SCT150
     FM081600 33027G36KT P6SM SCT250=

USA.gov is the U.S. government's official web portal to all federal, state and local government web resources and services.